createdAt,value
2023-03-11T00:01:47.940Z,88.90
2023-03-11T00:04:16.001Z,88.80
2023-03-11T00:06:43.855Z,88.80
2023-03-11T00:09:11.913Z,88.90
2023-03-11T00:11:39.771Z,88.90
2023-03-11T00:14:07.656Z,88.90
2023-03-11T00:16:36.863Z,88.90
2023-03-11T00:19:04.708Z,88.90
2023-03-11T00:21:32.851Z,88.90
2023-03-11T00:24:03.574Z,88.90
2023-03-11T00:26:31.410Z,88.90
2023-03-11T00:28:59.152Z,88.90
2023-03-11T00:31:27.389Z,88.90
2023-03-11T00:33:57.231Z,89.00
2023-03-11T00:36:31.552Z,89.00
2023-03-11T00:38:59.730Z,89.00
2023-03-11T00:41:27.616Z,88.90
2023-03-11T00:43:55.410Z,88.90
2023-03-11T00:46:24.868Z,89.10
2023-03-11T00:48:52.801Z,88.90
2023-03-11T00:51:23.881Z,89.00
2023-03-11T00:53:51.756Z,89.00
2023-03-11T00:56:22.281Z,89.10
2023-03-11T00:58:50.072Z,89.10
2023-03-11T01:01:21.084Z,89.10
2023-03-11T01:03:49.320Z,89.10
2023-03-11T01:06:17.364Z,89.20
2023-03-11T01:08:46.464Z,89.30
2023-03-11T01:11:14.422Z,89.20
2023-03-11T01:13:42.172Z,89.10
2023-03-11T01:16:10.100Z,89.10
2023-03-11T01:18:37.872Z,89.00
2023-03-11T01:21:06.204Z,89.00
2023-03-11T01:23:34.030Z,89.10
2023-03-11T01:26:03.136Z,89.10
2023-03-11T01:28:30.900Z,89.10
2023-03-11T01:30:58.720Z,89.10
2023-03-11T01:33:26.601Z,89.10
2023-03-11T01:35:54.656Z,89.00
2023-03-11T01:38:22.718Z,89.00
2023-03-11T01:40:52.465Z,89.00
2023-03-11T01:43:48.297Z,89.00
2023-03-11T01:46:18.943Z,89.00
2023-03-11T01:48:48.806Z,89.00
2023-03-11T01:51:18.812Z,88.90
2023-03-11T01:53:46.870Z,88.80
2023-03-11T01:56:15.933Z,88.60
2023-03-11T01:58:50.040Z,88.60
2023-03-11T02:01:18.271Z,88.50
2023-03-11T02:03:46.122Z,88.40
2023-03-11T02:06:17.180Z,88.30
2023-03-11T02:08:45.979Z,88.40
2023-03-11T02:11:17.663Z,88.40
2023-03-11T02:13:47.387Z,88.50
2023-03-11T02:16:15.354Z,88.80
2023-03-11T02:18:44.288Z,88.90
2023-03-11T02:21:22.354Z,88.90
2023-03-11T02:23:57.680Z,88.90
2023-03-11T02:26:31.523Z,88.90
2023-03-11T02:29:01.487Z,88.90
2023-03-11T02:31:30.052Z,89.00
2023-03-11T02:34:00.565Z,89.00
2023-03-11T02:36:36.306Z,89.00
2023-03-11T02:39:05.069Z,89.00
2023-03-11T02:41:34.232Z,89.00
2023-03-11T02:44:05.937Z,89.10
2023-03-11T02:46:34.423Z,89.10
2023-03-11T02:49:02.728Z,89.10
2023-03-11T02:51:30.466Z,89.10
2023-03-11T02:54:02.601Z,89.10
2023-03-11T02:56:30.416Z,89.10
2023-03-11T02:58:58.254Z,89.10
2023-03-11T03:01:27.393Z,89.10
2023-03-11T03:03:55.310Z,89.10
2023-03-11T03:06:23.115Z,89.10
2023-03-11T03:08:51.021Z,89.10
2023-03-11T03:11:19.136Z,89.10
2023-03-11T03:13:46.919Z,89.10
2023-03-11T03:16:14.792Z,89.00
2023-03-11T03:18:43.952Z,88.90
2023-03-11T03:21:11.673Z,88.90
2023-03-11T03:23:39.390Z,88.90
2023-03-11T03:26:07.572Z,88.80
2023-03-11T03:28:35.557Z,88.90
2023-03-11T03:31:07.040Z,88.90
2023-03-11T03:33:35.273Z,89.00
2023-03-11T03:36:07.600Z,89.00
2023-03-11T03:38:35.426Z,89.10
2023-03-11T03:41:03.241Z,89.00
2023-03-11T03:43:31.068Z,89.00
2023-03-11T03:45:59.794Z,88.90
2023-03-11T03:48:29.221Z,89.10
2023-03-11T03:50:57.143Z,89.10
2023-03-11T03:53:26.276Z,89.10
2023-03-11T03:55:55.178Z,89.10
2023-03-11T03:58:23.081Z,89.10
2023-03-11T04:00:50.963Z,88.90
2023-03-11T04:03:18.822Z,88.80
2023-03-11T04:05:46.594Z,88.60
2023-03-11T04:08:14.336Z,88.60
2023-03-11T04:10:43.436Z,88.70
2023-03-11T04:13:11.298Z,88.80
2023-03-11T04:15:39.628Z,89.00
2023-03-11T04:18:07.463Z,89.00
2023-03-11T04:20:35.246Z,89.00
2023-03-11T04:23:03.007Z,89.00
2023-03-11T04:25:30.787Z,89.00
2023-03-11T04:27:59.966Z,89.00
2023-03-11T04:30:27.885Z,89.00
2023-03-11T04:32:55.682Z,88.90
2023-03-11T04:35:23.541Z,88.90
2023-03-11T04:37:51.597Z,88.50
2023-03-11T04:40:19.697Z,88.40
2023-03-11T04:42:47.512Z,88.30
2023-03-11T04:45:18.430Z,88.30
2023-03-11T04:47:48.825Z,88.30
2023-03-11T04:50:17.054Z,88.30
2023-03-11T04:52:44.926Z,88.50
2023-03-11T04:55:13.787Z,88.40
2023-03-11T04:57:41.756Z,88.60
2023-03-11T05:00:11.968Z,88.70
2023-03-11T05:02:41.780Z,88.90
2023-03-11T05:05:10.977Z,89.00
2023-03-11T05:07:38.768Z,89.00
2023-03-11T05:10:07.586Z,89.00
2023-03-11T05:12:35.420Z,89.00
2023-03-11T05:15:03.278Z,89.10
2023-03-11T05:17:31.257Z,89.10
2023-03-11T05:20:00.457Z,89.10
2023-03-11T05:22:28.538Z,89.10
2023-03-11T05:24:56.316Z,89.00
2023-03-11T05:27:24.053Z,89.00
2023-03-11T05:29:51.863Z,89.00
2023-03-11T05:32:20.191Z,89.00
2023-03-11T05:34:48.217Z,89.00
2023-03-11T05:37:17.315Z,88.90
2023-03-11T05:39:45.070Z,89.00
2023-03-11T05:42:12.850Z,89.00
2023-03-11T05:44:41.445Z,89.00
2023-03-11T05:47:09.430Z,88.90
2023-03-11T05:49:37.425Z,89.00
2023-03-11T05:52:05.592Z,89.00
2023-03-11T05:54:34.761Z,89.00
2023-03-11T05:57:02.557Z,89.00
2023-03-11T05:59:32.373Z,89.00
2023-03-11T06:02:00.181Z,89.00
2023-03-11T06:04:28.453Z,89.00
2023-03-11T06:06:56.272Z,89.00
2023-03-11T06:09:24.092Z,88.90
2023-03-11T06:11:53.151Z,88.80
2023-03-11T06:14:21.110Z,88.70
2023-03-11T06:16:48.887Z,88.50
2023-03-11T06:19:16.741Z,88.30
2023-03-11T06:21:44.557Z,88.30
2023-03-11T06:24:12.404Z,88.30
2023-03-11T06:26:40.171Z,88.30
2023-03-11T06:29:13.935Z,88.30
2023-03-11T06:31:41.907Z,88.30
2023-03-11T06:34:11.866Z,88.30
2023-03-11T06:36:39.839Z,88.40
2023-03-11T06:39:07.748Z,88.40
2023-03-11T06:41:35.810Z,88.40
2023-03-11T06:44:04.456Z,88.40
2023-03-11T06:46:33.690Z,88.40
2023-03-11T06:49:01.534Z,88.40
2023-03-11T06:51:29.297Z,88.50
2023-03-11T06:53:57.077Z,88.50
2023-03-11T06:56:25.097Z,88.50
2023-03-11T06:58:52.843Z,88.70
2023-03-11T07:01:22.792Z,88.70
2023-03-11T07:03:53.661Z,88.70
2023-03-11T07:06:24.052Z,88.70
2023-03-11T07:08:53.701Z,88.70
2023-03-11T07:11:24.778Z,88.70
2023-03-11T07:13:53.064Z,88.70
2023-03-11T07:16:23.167Z,88.50
2023-03-11T07:18:53.453Z,88.40
2023-03-11T07:21:23.213Z,88.50
2023-03-11T07:23:53.639Z,88.60
2023-03-11T07:26:22.199Z,88.50
2023-03-11T07:28:50.168Z,88.50
2023-03-11T07:31:20.005Z,88.60
2023-03-11T07:33:48.386Z,88.70
2023-03-11T07:36:19.966Z,88.80
2023-03-11T07:38:48.596Z,88.60
2023-03-11T07:41:17.131Z,88.30
2023-03-11T07:43:45.050Z,88.10
2023-03-11T07:46:16.719Z,88.00
2023-03-11T07:48:45.385Z,88.10
2023-03-11T07:51:15.012Z,88.10
2023-03-11T07:53:44.604Z,88.30
2023-03-11T07:56:13.886Z,88.30
2023-03-11T07:58:43.571Z,88.50
2023-03-11T08:01:16.083Z,88.50
2023-03-11T08:03:45.554Z,88.50
2023-03-11T08:06:14.612Z,88.50
2023-03-11T08:08:44.157Z,88.50
2023-03-11T08:11:13.599Z,88.70
2023-03-11T08:13:41.949Z,88.70
2023-03-11T08:16:11.620Z,88.70
2023-03-11T08:18:39.527Z,88.60
2023-03-11T08:21:08.172Z,88.70
2023-03-11T08:23:36.296Z,88.70
2023-03-11T08:26:06.665Z,88.70
2023-03-11T08:28:34.995Z,88.80
2023-03-11T08:31:02.938Z,88.80
2023-03-11T08:33:30.835Z,88.80
2023-03-11T08:35:58.850Z,88.90
2023-03-11T08:38:26.927Z,88.80
2023-03-11T08:40:54.718Z,88.90
2023-03-11T08:43:23.877Z,88.90
2023-03-11T08:45:51.725Z,88.80
2023-03-11T08:48:19.560Z,88.90
2023-03-11T08:50:54.231Z,88.90
2023-03-11T08:53:22.657Z,89.00
2023-03-11T08:55:50.821Z,89.00
2023-03-11T08:58:18.973Z,89.00
2023-03-11T09:00:48.736Z,89.10
2023-03-11T09:03:16.778Z,89.10
2023-03-11T09:05:44.666Z,89.10
2023-03-11T09:08:13.707Z,89.00
2023-03-11T09:10:41.798Z,89.10
2023-03-11T09:13:10.798Z,89.10
2023-03-11T09:15:38.866Z,89.20
2023-03-11T09:18:09.083Z,89.20
2023-03-11T09:20:38.861Z,89.20
2023-03-11T09:23:06.961Z,89.20
2023-03-11T09:25:35.231Z,89.30
2023-03-11T09:28:03.197Z,89.40
2023-03-11T09:30:31.471Z,89.40
2023-03-11T09:32:59.407Z,89.40
2023-03-11T09:35:28.662Z,89.40
2023-03-11T09:37:56.812Z,89.40
2023-03-11T09:40:27.555Z,89.50
2023-03-11T09:43:04.534Z,89.50
2023-03-11T09:45:35.677Z,89.60
2023-03-11T09:48:16.653Z,89.60
2023-03-11T09:50:50.115Z,89.70
2023-03-11T09:53:33.692Z,89.60
2023-03-11T09:56:05.029Z,89.60
2023-03-11T09:58:40.577Z,89.60
2023-03-11T10:01:17.141Z,89.60
2023-03-11T10:03:46.923Z,89.70
2023-03-11T10:06:22.646Z,89.70
2023-03-11T10:08:59.385Z,89.60
2023-03-11T10:11:38.405Z,89.70
2023-03-11T10:14:16.714Z,89.80
2023-03-11T10:16:50.840Z,89.70
2023-03-11T10:19:29.544Z,89.70
2023-03-11T10:22:06.952Z,89.70
2023-03-11T10:24:50.633Z,89.60
2023-03-11T10:27:22.851Z,89.50
2023-03-11T10:29:58.155Z,89.30
2023-03-11T10:32:34.091Z,89.50
2023-03-11T10:35:07.127Z,89.60
2023-03-11T10:37:49.442Z,89.60
2023-03-11T10:40:24.169Z,89.60
2023-03-11T10:42:55.008Z,89.60
2023-03-11T10:45:24.019Z,89.50
2023-03-11T10:47:52.202Z,89.40
2023-03-11T10:50:21.796Z,89.30
2023-03-11T10:53:06.782Z,89.30
2023-03-11T10:55:34.966Z,89.30
2023-03-11T10:58:08.315Z,89.20
2023-03-11T11:00:36.139Z,89.10
2023-03-11T11:03:06.601Z,89.20
2023-03-11T11:05:35.900Z,89.10
2023-03-11T11:08:07.348Z,89.10
2023-03-11T11:10:36.171Z,89.10
2023-03-11T11:13:19.112Z,89.00
2023-03-11T11:15:56.793Z,89.00
2023-03-11T11:18:28.336Z,88.90
2023-03-11T11:21:01.112Z,88.90
2023-03-11T11:23:35.827Z,88.90
2023-03-11T11:26:06.408Z,88.90
2023-03-11T11:28:35.524Z,88.70
2023-03-11T11:31:06.629Z,88.20
2023-03-11T11:33:39.672Z,88.20
2023-03-11T11:36:15.750Z,88.30
2023-03-11T11:38:45.515Z,88.30
2023-03-11T11:41:17.837Z,88.30
2023-03-11T11:43:50.702Z,89.00
2023-03-11T11:46:23.189Z,88.40
2023-03-11T11:48:57.679Z,88.40
2023-03-11T11:51:30.972Z,88.40
2023-03-11T11:54:05.192Z,88.30
2023-03-11T11:56:33.141Z,88.40
2023-03-11T11:59:01.956Z,88.40
2023-03-11T12:01:41.195Z,88.50
2023-03-11T12:04:31.740Z,89.10
2023-03-11T12:07:13.265Z,89.20
2023-03-11T12:09:53.083Z,89.10
2023-03-11T12:12:31.604Z,89.10
2023-03-11T12:15:08.202Z,89.20
2023-03-11T12:17:42.175Z,89.40
2023-03-11T12:20:15.120Z,89.50
2023-03-11T12:22:56.260Z,89.60
2023-03-11T12:25:36.458Z,89.60
2023-03-11T12:28:17.319Z,89.60
2023-03-11T12:30:50.844Z,89.70
2023-03-11T12:33:29.031Z,89.80
2023-03-11T12:35:59.073Z,90.00
2023-03-11T12:38:33.396Z,90.00
2023-03-11T12:41:08.195Z,90.10
2023-03-11T12:43:59.225Z,90.20
2023-03-11T12:47:01.187Z,90.30
2023-03-11T12:49:30.915Z,90.40
2023-03-11T12:52:03.839Z,90.50
2023-03-11T12:54:34.134Z,90.40
2023-03-11T12:57:06.037Z,90.20
2023-03-11T13:00:12.614Z,90.20
2023-03-11T13:03:08.483Z,90.10
2023-03-11T13:05:51.813Z,90.20
2023-03-11T13:08:23.287Z,90.20
2023-03-11T13:10:52.248Z,90.20
2023-03-11T13:13:42.049Z,90.30
2023-03-11T13:16:39.890Z,90.40
2023-03-11T13:19:34.922Z,90.70
2023-03-11T13:22:03.849Z,90.30
2023-03-11T13:24:48.977Z,90.20
2023-03-11T13:27:29.012Z,90.20
2023-03-11T13:30:03.277Z,90.40
2023-03-11T13:33:15.976Z,90.30
2023-03-11T13:36:04.056Z,90.30
2023-03-11T13:39:00.096Z,90.20
2023-03-11T13:41:31.807Z,90.20
2023-03-11T13:44:11.228Z,90.10
2023-03-11T13:46:43.695Z,90.20
2023-03-11T13:49:24.409Z,90.20
2023-03-11T13:51:54.680Z,90.20
2023-03-11T13:54:35.671Z,90.50
2023-03-11T13:57:04.752Z,90.10
2023-03-11T13:59:34.885Z,90.10
2023-03-11T14:02:18.204Z,90.20
2023-03-11T14:04:51.187Z,90.30
2023-03-11T14:07:26.699Z,90.20
2023-03-11T14:10:23.929Z,90.10
2023-03-11T14:12:52.603Z,90.00
2023-03-11T14:15:26.382Z,90.00
2023-03-11T14:18:17.855Z,90.00
2023-03-11T14:20:48.863Z,90.10
2023-03-11T14:23:20.503Z,90.10
2023-03-11T14:25:48.602Z,90.10
2023-03-11T14:28:21.738Z,90.10
2023-03-11T14:30:58.046Z,90.20
2023-03-11T14:33:27.234Z,90.20
2023-03-11T14:35:57.035Z,90.20
2023-03-11T14:38:26.308Z,90.10
2023-03-11T14:40:56.176Z,90.00
2023-03-11T14:43:24.256Z,90.00
2023-03-11T14:45:54.243Z,90.00
2023-03-11T14:48:30.228Z,90.00
2023-03-11T14:51:00.866Z,89.50
2023-03-11T14:53:33.934Z,89.20
2023-03-11T14:56:04.997Z,89.60
2023-03-11T14:58:35.862Z,89.80
2023-03-11T15:01:07.859Z,89.80
2023-03-11T15:03:40.640Z,89.90
2023-03-11T15:06:10.766Z,90.00
2023-03-11T15:08:46.356Z,90.10
2023-03-11T15:11:25.291Z,90.30
2023-03-11T15:13:54.523Z,90.20
2023-03-11T15:16:27.473Z,90.20
2023-03-11T15:18:57.344Z,90.20
2023-03-11T15:21:26.087Z,90.20
2023-03-11T15:24:05.402Z,90.00
2023-03-11T15:26:36.009Z,89.80
2023-03-11T15:29:12.900Z,89.70
2023-03-11T15:31:41.284Z,89.70
2023-03-11T15:34:25.580Z,89.70
2023-03-11T15:37:01.406Z,89.80
2023-03-11T15:39:44.057Z,90.00
2023-03-11T15:42:16.450Z,90.00
2023-03-11T15:45:03.316Z,89.70
2023-03-11T15:47:31.458Z,89.70
2023-03-11T15:50:04.759Z,89.70
2023-03-11T15:52:32.670Z,89.70
2023-03-11T15:55:00.415Z,89.70
2023-03-11T15:57:30.731Z,89.70
2023-03-11T16:00:01.034Z,89.70
2023-03-11T16:02:33.413Z,89.60
2023-03-11T16:05:03.110Z,89.50
2023-03-11T16:07:39.541Z,89.50
2023-03-11T16:10:10.267Z,89.40
2023-03-11T16:12:38.778Z,89.40
2023-03-11T16:15:08.132Z,89.50
2023-03-11T16:17:48.803Z,89.60
2023-03-11T16:20:20.354Z,89.30
2023-03-11T16:22:49.604Z,89.00
2023-03-11T16:25:22.679Z,89.00
2023-03-11T16:27:52.214Z,89.00
2023-03-11T16:30:20.916Z,89.00
2023-03-11T16:32:49.102Z,88.90
2023-03-11T16:35:19.384Z,89.00
2023-03-11T16:37:48.224Z,89.10
2023-03-11T16:40:18.127Z,89.30
2023-03-11T16:42:46.976Z,89.20
2023-03-11T16:45:16.819Z,89.20
2023-03-11T16:47:44.878Z,89.00
2023-03-11T16:50:13.676Z,88.90
2023-03-11T16:52:42.920Z,88.90
2023-03-11T16:55:11.314Z,88.80
2023-03-11T16:57:39.544Z,88.70
2023-03-11T17:00:09.772Z,88.70
2023-03-11T17:02:38.308Z,88.80
2023-03-11T17:05:08.449Z,88.70
2023-03-11T17:07:39.279Z,88.60
2023-03-11T17:10:13.464Z,88.70
2023-03-11T17:12:41.986Z,89.00
2023-03-11T17:15:12.885Z,88.50
2023-03-11T17:17:41.325Z,88.60
2023-03-11T17:20:11.387Z,88.60
2023-03-11T17:22:39.546Z,88.60
2023-03-11T17:25:10.628Z,88.40
2023-03-11T17:27:39.104Z,88.50
2023-03-11T17:30:08.200Z,88.50
2023-03-11T17:32:37.518Z,88.50
2023-03-11T17:35:06.340Z,89.30
2023-03-11T17:37:34.522Z,88.60
2023-03-11T17:40:02.525Z,88.60
2023-03-11T17:42:34.526Z,88.60
2023-03-11T17:45:03.525Z,88.60
2023-03-11T17:47:33.676Z,88.50
2023-03-11T17:50:02.914Z,88.50
2023-03-11T17:52:30.989Z,88.40
2023-03-11T17:54:58.885Z,88.50
2023-03-11T17:57:26.665Z,88.40
2023-03-11T17:59:56.827Z,88.50
2023-03-11T18:02:25.021Z,88.50
2023-03-11T18:04:54.096Z,89.20
2023-03-11T18:07:26.151Z,88.40
2023-03-11T18:09:54.697Z,88.30
2023-03-11T18:12:24.400Z,88.30
2023-03-11T18:14:52.847Z,88.30
2023-03-11T18:17:22.061Z,88.20
2023-03-11T18:19:50.080Z,88.20
2023-03-11T18:22:18.261Z,88.20
2023-03-11T18:24:46.754Z,88.20
2023-03-11T18:27:15.147Z,88.10
2023-03-11T18:29:43.598Z,88.10
2023-03-11T18:32:11.955Z,88.00
2023-03-11T18:34:44.063Z,88.10
2023-03-11T18:37:12.040Z,88.10
2023-03-11T18:39:40.532Z,88.00
2023-03-11T18:42:08.574Z,88.10
2023-03-11T18:44:37.092Z,88.10
2023-03-11T18:47:05.707Z,88.20
2023-03-11T18:49:33.950Z,88.10
2023-03-11T18:52:03.271Z,88.10
2023-03-11T18:54:32.075Z,88.20
2023-03-11T18:57:00.204Z,88.10
2023-03-11T18:59:28.543Z,88.10
2023-03-11T19:01:56.952Z,88.00
2023-03-11T19:04:25.017Z,88.80
2023-03-11T19:06:53.183Z,88.10
2023-03-11T19:09:22.381Z,88.20
2023-03-11T19:11:50.595Z,88.10
2023-03-11T19:14:18.625Z,88.10
2023-03-11T19:16:46.726Z,88.10
2023-03-11T19:19:14.793Z,88.00
2023-03-11T19:21:43.132Z,88.00
2023-03-11T19:24:12.704Z,88.10
2023-03-11T19:26:45.975Z,88.20
2023-03-11T19:29:16.526Z,88.10
2023-03-11T19:31:45.297Z,88.10
2023-03-11T19:34:13.620Z,88.10
2023-03-11T19:36:42.204Z,88.10
2023-03-11T19:39:10.974Z,88.10
2023-03-11T19:41:39.192Z,88.10
2023-03-11T19:44:08.558Z,88.10
2023-03-11T19:46:36.659Z,88.10
2023-03-11T19:49:05.596Z,88.20
2023-03-11T19:51:48.606Z,88.20
2023-03-11T19:54:18.647Z,88.20
2023-03-11T19:56:48.338Z,88.20
2023-03-11T19:59:17.804Z,88.20
2023-03-11T20:01:45.713Z,88.20
2023-03-11T20:04:15.131Z,88.20
2023-03-11T20:06:44.300Z,88.20
2023-03-11T20:09:14.073Z,88.30
2023-03-11T20:11:42.565Z,88.40
2023-03-11T20:14:11.467Z,88.40
2023-03-11T20:16:40.916Z,88.30
2023-03-11T20:19:09.109Z,88.30
2023-03-11T20:21:39.288Z,88.20
2023-03-11T20:24:08.259Z,88.30
2023-03-11T20:26:36.761Z,88.40
2023-03-11T20:29:05.469Z,88.40
2023-03-11T20:31:33.939Z,88.40
2023-03-11T20:34:04.264Z,88.60
2023-03-11T20:36:34.108Z,88.60
2023-03-11T20:39:02.264Z,88.60
2023-03-11T20:41:35.679Z,88.50
2023-03-11T20:44:04.259Z,88.60
2023-03-11T20:46:33.992Z,88.40
2023-03-11T20:49:04.285Z,88.40
2023-03-11T20:51:32.258Z,88.40
2023-03-11T20:54:00.550Z,88.50
2023-03-11T20:56:29.149Z,88.50
2023-03-11T20:58:59.405Z,88.60
2023-03-11T21:01:30.312Z,88.60
2023-03-11T21:04:00.016Z,88.50
2023-03-11T21:06:31.674Z,88.60
2023-03-11T21:09:02.142Z,88.50
2023-03-11T21:11:30.693Z,88.60
2023-03-11T21:13:58.742Z,88.80
2023-03-11T21:16:28.084Z,88.80
2023-03-11T21:18:56.449Z,88.90
2023-03-11T21:21:24.761Z,88.80
2023-03-11T21:23:55.153Z,88.90
2023-03-11T21:26:23.326Z,89.70
2023-03-11T21:28:51.539Z,89.00
2023-03-11T21:31:21.576Z,88.90
2023-03-11T21:33:53.133Z,88.70
2023-03-11T21:36:21.433Z,88.60
2023-03-11T21:38:50.103Z,88.20
2023-03-11T21:41:21.690Z,88.10
2023-03-11T21:43:50.009Z,88.00
2023-03-11T21:46:20.530Z,88.00
2023-03-11T21:48:49.609Z,88.00
2023-03-11T21:51:19.138Z,88.10
2023-03-11T21:53:48.160Z,88.10
2023-03-11T21:56:16.186Z,88.00
2023-03-11T21:58:45.999Z,87.90
2023-03-11T22:01:14.023Z,87.90
2023-03-11T22:03:42.236Z,88.00
2023-03-11T22:06:11.928Z,87.90
2023-03-11T22:08:40.345Z,88.00
2023-03-11T22:11:09.981Z,88.00
2023-03-11T22:13:37.805Z,88.10
2023-03-11T22:16:08.559Z,88.20
2023-03-11T22:18:36.786Z,88.50
2023-03-11T22:21:05.262Z,88.70
2023-03-11T22:23:34.293Z,88.70
2023-03-11T22:26:02.693Z,88.70
2023-03-11T22:28:30.658Z,88.70
2023-03-11T22:30:58.444Z,88.70
2023-03-11T22:33:27.989Z,88.70
2023-03-11T22:35:59.286Z,88.70
2023-03-11T22:38:27.230Z,88.60
2023-03-11T22:40:55.201Z,88.60
2023-03-11T22:43:23.205Z,89.40
2023-03-11T22:45:51.351Z,88.70
2023-03-11T22:48:19.479Z,88.70
2023-03-11T22:50:48.826Z,88.60
2023-03-11T22:53:17.328Z,88.60
2023-03-11T22:55:45.981Z,88.30
2023-03-11T22:58:13.946Z,88.10
2023-03-11T23:00:44.072Z,88.00
2023-03-11T23:03:12.958Z,87.90
2023-03-11T23:05:42.252Z,87.90
2023-03-11T23:08:13.740Z,87.90
2023-03-11T23:10:42.972Z,88.00
2023-03-11T23:13:11.770Z,87.90
2023-03-11T23:15:41.492Z,87.80
2023-03-11T23:18:09.770Z,87.90
2023-03-11T23:20:39.652Z,87.90
2023-03-11T23:23:08.432Z,87.80
2023-03-11T23:25:37.597Z,87.90
2023-03-11T23:28:06.653Z,87.80
2023-03-11T23:30:34.984Z,87.70
2023-03-11T23:33:03.688Z,87.80
2023-03-11T23:35:32.204Z,87.90
2023-03-11T23:38:00.602Z,87.90
2023-03-11T23:40:29.100Z,87.90
2023-03-11T23:42:58.773Z,87.90
2023-03-11T23:45:26.637Z,87.90
2023-03-11T23:47:55.017Z,88.00
2023-03-11T23:50:23.224Z,87.90
2023-03-11T23:52:51.228Z,88.00
2023-03-11T23:55:19.211Z,88.00
2023-03-11T23:57:47.117Z,88.00
